Time;durP1;ratioP1;P1;durP2;ratioP2;P2;SDS_P1;SDS_P2;PMS_P1;PMS_P2;Temp;Humidity;BMP_temperature;BMP_pressure;BME280_temperature;BME280_humidity;BME280_pressure;Samples;Min_cycle;Max_cycle;Signal;HPM_P1;HPM_P2
2021/08/26 00:07:46;;;;;;;0.20;0.20;;;16.50;83.20;;;;;;4991276;28;20045;-80
2021/08/26 00:10:13;;;;;;;0.22;0.20;;;16.60;83.30;;;;;;4975248;28;20026;-81
2021/08/26 00:12:39;;;;;;;0.20;0.20;;;16.60;83.30;;;;;;4990992;28;20058;-80
2021/08/26 00:15:07;;;;;;;0.22;0.22;;;16.50;83.20;;;;;;4991037;28;20049;-80
2021/08/26 00:17:33;;;;;;;0.43;0.40;;;16.60;83.40;;;;;;4990743;28;20491;-80
2021/08/26 00:19:59;;;;;;;0.28;0.25;;;16.60;83.40;;;;;;4991134;28;20062;-80
2021/08/26 00:22:25;;;;;;;0.63;0.38;;;16.60;83.50;;;;;;5007062;28;20069;-80
2021/08/26 00:24:51;;;;;;;0.55;0.32;;;16.50;83.40;;;;;;4992250;28;20066;-80
2021/08/26 00:27:17;;;;;;;1.40;0.20;;;16.60;83.50;;;;;;4990346;28;20493;-80
2021/08/26 00:29:43;;;;;;;0.22;0.22;;;16.50;83.50;;;;;;4989715;28;20066;-80
2021/08/26 00:32:08;;;;;;;0.75;0.40;;;16.50;83.60;;;;;;4989394;28;20086;-80
2021/08/26 00:34:34;;;;;;;0.43;0.30;;;16.50;83.60;;;;;;4991974;28;20121;-80
2021/08/26 00:37:00;;;;;;;1.38;0.50;;;16.50;83.60;;;;;;4989862;28;20149;-80
2021/08/26 00:39:26;;;;;;;0.40;0.40;;;16.50;83.70;;;;;;4990011;28;20037;-80
2021/08/26 00:41:52;;;;;;;0.20;0.20;;;16.50;83.70;;;;;;4992485;28;20046;-79
2021/08/26 00:44:18;;;;;;;0.20;0.20;;;16.50;83.80;;;;;;4993445;28;20088;-80
2021/08/26 00:46:47;;;;;;;0.38;0.32;;;16.50;83.80;;;;;;4995421;28;20125;-80
2021/08/26 00:49:15;;;;;;;0.32;0.32;;;16.50;83.90;;;;;;4993045;28;20038;-79
2021/08/26 00:51:41;;;;;;;0.63;0.30;;;16.50;83.90;;;;;;4995556;28;20126;-79
2021/08/26 00:54:07;;;;;;;0.73;0.40;;;16.50;83.90;;;;;;4994018;28;20447;-80
2021/08/26 00:56:34;;;;;;;0.52;0.30;;;16.40;83.90;;;;;;4993535;28;20482;-79
2021/08/26 00:59:02;;;;;;;0.45;0.32;;;16.40;84.00;;;;;;4992772;28;20030;-80
2021/08/26 01:01:46;;;;;;;1.05;0.30;;;16.40;84.10;;;;;;4992481;28;20027;-79
2021/08/26 01:04:33;;;;;;;0.90;0.32;;;16.40;84.10;;;;;;4995204;28;20031;-80
2021/08/26 01:07:14;;;;;;;0.57;0.35;;;16.40;84.10;;;;;;4992272;28;20041;-79
2021/08/26 01:09:47;;;;;;;0.15;0.15;;;16.40;84.10;;;;;;4994689;28;20038;-79
2021/08/26 01:12:15;;;;;;;0.22;0.22;;;16.40;84.10;;;;;;4994644;28;20035;-81
2021/08/26 01:14:42;;;;;;;1.05;0.35;;;16.40;84.10;;;;;;5007645;28;20061;-79
2021/08/26 01:17:08;;;;;;;0.73;0.30;;;16.30;84.10;;;;;;4993758;28;20031;-79
2021/08/26 01:19:34;;;;;;;0.30;0.20;;;16.40;84.10;;;;;;4976298;28;20513;-79
2021/08/26 01:21:59;;;;;;;0.30;0.28;;;16.40;84.10;;;;;;4994588;28;20034;-79
2021/08/26 01:24:28;;;;;;;0.22;0.22;;;16.40;84.10;;;;;;4993200;28;20042;-80
2021/08/26 01:26:57;;;;;;;0.28;0.20;;;16.40;84.20;;;;;;5009209;28;20038;-79
2021/08/26 01:29:23;;;;;;;1.58;0.50;;;16.40;84.10;;;;;;4993011;28;20051;-80
2021/08/26 01:31:49;;;;;;;0.77;0.52;;;16.30;84.40;;;;;;4992647;28;20045;-80
2021/08/26 01:34:15;;;;;;;1.50;0.70;;;16.30;84.10;;;;;;4991525;28;20070;-80
2021/08/26 01:36:41;;;;;;;0.70;0.70;;;16.30;84.10;;;;;;4992830;28;20038;-81
2021/08/26 01:39:11;;;;;;;0.70;0.45;;;16.30;84.10;;;;;;4992238;28;20033;-79
2021/08/26 01:41:51;;;;;;;1.95;0.63;;;16.20;84.10;;;;;;4994760;28;20037;-79
2021/08/26 01:44:20;;;;;;;1.00;0.43;;;16.20;84.10;;;;;;4994636;28;20043;-79
2021/08/26 01:46:46;;;;;;;0.98;0.60;;;16.20;84.10;;;;;;4991584;28;20047;-80
2021/08/26 01:49:12;;;;;;;0.65;0.45;;;16.20;84.10;;;;;;4992746;28;20455;-80
2021/08/26 01:51:39;;;;;;;0.35;0.30;;;16.00;84.60;;;;;;4992611;28;20125;-79
2021/08/26 01:54:05;;;;;;;1.25;0.45;;;16.10;84.10;;;;;;4994066;28;20046;-79
2021/08/26 01:56:31;;;;;;;0.65;0.40;;;16.10;84.10;;;;;;4994016;28;20046;-79
2021/08/26 01:58:57;;;;;;;1.02;0.45;;;16.20;84.10;;;;;;4994384;28;20031;-79
2021/08/26 02:01:22;;;;;;;0.30;0.30;;;16.10;84.10;;;;;;4991815;28;20442;-79
2021/08/26 02:03:48;;;;;;;1.13;0.63;;;16.10;84.10;;;;;;4991175;28;20038;-80
2021/08/26 02:06:14;;;;;;;1.70;0.55;;;16.10;84.10;;;;;;4992293;28;20097;-79
2021/08/26 02:08:39;;;;;;;0.85;0.50;;;16.00;83.90;;;;;;5008051;28;20042;-79
2021/08/26 02:11:05;;;;;;;1.25;0.45;;;16.10;84.00;;;;;;4991015;28;20031;-79
2021/08/26 02:13:31;;;;;;;1.02;0.50;;;16.00;83.90;;;;;;4993704;28;20391;-79
2021/08/26 02:15:57;;;;;;;2.28;0.60;;;16.00;83.80;;;;;;4992650;28;20133;-79
2021/08/26 02:18:22;;;;;;;0.80;0.50;;;16.00;83.90;;;;;;4992573;28;20061;-79
2021/08/26 02:20:48;;;;;;;0.68;0.30;;;16.00;83.90;;;;;;4992886;28;20100;-79
2021/08/26 02:23:14;;;;;;;0.68;0.55;;;15.90;83.90;;;;;;4992640;28;20038;-79
2021/08/26 02:25:40;;;;;;;1.33;0.55;;;15.90;83.90;;;;;;4992248;28;20034;-80
2021/08/26 02:28:05;;;;;;;1.25;0.60;;;16.00;83.90;;;;;;4992372;28;20039;-79
2021/08/26 02:30:31;;;;;;;1.77;0.40;;;16.00;83.90;;;;;;4993584;28;20041;-79
2021/08/26 02:32:57;;;;;;;0.88;0.52;;;15.90;83.90;;;;;;5007218;28;20030;-79
2021/08/26 02:35:23;;;;;;;1.80;0.55;;;15.80;83.80;;;;;;4992003;28;20042;-79
2021/08/26 02:37:48;;;;;;;1.08;0.60;;;15.90;83.90;;;;;;4991783;28;20033;-79
2021/08/26 02:40:14;;;;;;;0.70;0.50;;;15.80;83.90;;;;;;4993574;28;20121;-79
2021/08/26 02:42:40;;;;;;;0.43;0.38;;;15.80;83.90;;;;;;4990040;28;20038;-79
2021/08/26 02:45:06;;;;;;;0.50;0.50;;;15.80;83.90;;;;;;5007836;28;20105;-79
2021/08/26 02:47:32;;;;;;;1.90;0.70;;;15.80;84.00;;;;;;5007045;28;20045;-79
2021/08/26 02:49:57;;;;;;;0.80;0.47;;;15.80;83.90;;;;;;4993176;28;20038;-79
2021/08/26 02:52:23;;;;;;;1.17;0.63;;;15.80;83.90;;;;;;5007635;28;20037;-79
2021/08/26 02:54:49;;;;;;;1.33;0.60;;;15.80;83.90;;;;;;5007620;28;20038;-80
2021/08/26 02:57:14;;;;;;;1.23;0.57;;;15.80;83.90;;;;;;4993109;28;20034;-79
2021/08/26 02:59:40;;;;;;;1.00;0.60;;;15.80;83.90;;;;;;4991548;28;20117;-79
2021/08/26 03:02:06;;;;;;;1.85;0.40;;;15.80;83.90;;;;;;4993092;28;20041;-79
2021/08/26 03:04:32;;;;;;;0.88;0.50;;;15.80;83.90;;;;;;4989368;28;20046;-79
2021/08/26 03:06:57;;;;;;;1.77;0.80;;;15.80;83.90;;;;;;4993103;28;20410;-80
2021/08/26 03:09:23;;;;;;;2.42;1.00;;;15.70;83.80;;;;;;4991159;28;20074;-80
2021/08/26 03:11:49;;;;;;;2.80;0.80;;;15.60;83.80;;;;;;4993148;28;20089;-80
2021/08/26 03:14:15;;;;;;;0.93;0.55;;;15.70;84.00;;;;;;4989743;28;20035;-80
2021/08/26 03:16:40;;;;;;;1.17;0.70;;;15.70;84.10;;;;;;5007814;28;20038;-80
2021/08/26 03:19:06;;;;;;;1.15;0.55;;;15.60;84.10;;;;;;5006912;28;20093;-80
2021/08/26 03:21:32;;;;;;;2.08;0.60;;;15.60;84.10;;;;;;4992094;28;20474;-79
2021/08/26 03:23:58;;;;;;;1.98;0.65;;;15.60;84.10;;;;;;4991685;28;20045;-79
2021/08/26 03:26:23;;;;;;;2.53;0.80;;;15.60;84.10;;;;;;5008127;28;20065;-80
2021/08/26 03:28:49;;;;;;;1.23;0.68;;;15.70;84.20;;;;;;5007966;28;20050;-79
2021/08/26 03:31:15;;;;;;;0.82;0.50;;;15.60;84.20;;;;;;4991790;28;20046;-79
2021/08/26 03:33:40;;;;;;;2.03;0.65;;;15.60;84.20;;;;;;4991482;28;20058;-79
2021/08/26 03:36:06;;;;;;;1.27;0.60;;;15.60;84.20;;;;;;4993114;28;20592;-80
2021/08/26 03:38:32;;;;;;;1.83;0.50;;;15.60;84.20;;;;;;5005778;28;20390;-80
2021/08/26 03:40:57;;;;;;;0.80;0.40;;;15.60;84.20;;;;;;5007808;28;20099;-80
2021/08/26 03:43:23;;;;;;;0.52;0.52;;;15.60;84.30;;;;;;4990199;28;20045;-80
2021/08/26 03:45:49;;;;;;;1.23;0.47;;;15.50;84.30;;;;;;4989902;28;20039;-79
2021/08/26 03:48:15;;;;;;;1.27;0.60;;;15.60;84.30;;;;;;4991264;28;20041;-80
2021/08/26 03:50:41;;;;;;;1.00;0.60;;;15.50;84.30;;;;;;4990653;28;20490;-79
2021/08/26 03:53:07;;;;;;;1.08;0.70;;;15.50;84.30;;;;;;4989731;28;20044;-79
2021/08/26 03:55:33;;;;;;;0.50;0.50;;;15.50;84.20;;;;;;4989316;28;20558;-80
2021/08/26 03:57:59;;;;;;;1.30;0.70;;;15.50;84.30;;;;;;4974105;28;20475;-80
2021/08/26 04:00:24;;;;;;;1.88;0.70;;;15.50;84.30;;;;;;5006035;28;20387;-79
2021/08/26 04:02:50;;;;;;;2.03;0.50;;;15.50;84.30;;;;;;4989865;28;20121;-80
2021/08/26 04:05:16;;;;;;;1.95;0.65;;;15.50;84.30;;;;;;4992579;28;20037;-79
2021/08/26 04:07:41;;;;;;;1.77;0.70;;;15.60;84.40;;;;;;4990704;28;20562;-79
2021/08/26 04:10:08;;;;;;;1.33;0.50;;;15.50;84.30;;;;;;4992527;28;20030;-79
2021/08/26 04:12:34;;;;;;;0.52;0.40;;;15.50;84.40;;;;;;4989893;28;20439;-79
2021/08/26 04:14:59;;;;;;;1.65;0.57;;;15.50;84.40;;;;;;5007627;28;20039;-79
2021/08/26 04:17:25;;;;;;;1.33;0.70;;;15.50;84.40;;;;;;4994509;28;20122;-80
2021/08/26 04:19:51;;;;;;;1.50;0.60;;;15.40;84.30;;;;;;4994363;28;20386;-79
2021/08/26 04:22:16;;;;;;;2.40;0.80;;;15.40;84.40;;;;;;4996372;28;20070;-79
2021/08/26 04:24:42;;;;;;;1.45;0.70;;;15.40;84.40;;;;;;4995677;28;20501;-79
2021/08/26 04:27:09;;;;;;;1.27;0.50;;;15.40;84.40;;;;;;4995842;28;20030;-79
2021/08/26 04:29:35;;;;;;;0.98;0.60;;;15.40;84.40;;;;;;4994236;28;20117;-79
2021/08/26 04:32:01;;;;;;;0.80;0.50;;;15.30;84.30;;;;;;5009960;28;20057;-79
2021/08/26 04:34:27;;;;;;;1.17;0.63;;;15.20;84.30;;;;;;4993837;28;20031;-79
2021/08/26 04:36:53;;;;;;;1.70;0.65;;;15.30;84.40;;;;;;4992592;28;20053;-78
2021/08/26 04:39:19;;;;;;;1.27;0.57;;;15.20;84.30;;;;;;4993728;28;20030;-78
2021/08/26 04:41:45;;;;;;;1.23;0.52;;;15.30;84.40;;;;;;4995453;28;20367;-78
2021/08/26 04:44:10;;;;;;;1.00;0.60;;;15.20;84.40;;;;;;4992285;28;20042;-79
2021/08/26 04:46:36;;;;;;;1.33;0.60;;;15.20;84.40;;;;;;4995331;28;20031;-79
2021/08/26 04:49:02;;;;;;;1.15;0.40;;;15.20;84.40;;;;;;4993057;28;20048;-79
2021/08/26 04:51:28;;;;;;;0.32;0.32;;;15.20;84.40;;;;;;5008630;28;20045;-79
2021/08/26 04:53:54;;;;;;;1.25;0.55;;;15.20;84.30;;;;;;4992009;28;20055;-79
2021/08/26 04:56:19;;;;;;;0.77;0.60;;;15.20;84.30;;;;;;4993040;28;20042;-79
2021/08/26 04:58:45;;;;;;;0.73;0.40;;;15.10;84.30;;;;;;5009136;28;20082;-79
2021/08/26 05:01:11;;;;;;;1.63;0.38;;;15.20;84.40;;;;;;5009968;28;20049;-79
2021/08/26 05:03:36;;;;;;;0.88;0.52;;;15.20;84.40;;;;;;4994089;28;20043;-79
2021/08/26 05:06:03;;;;;;;1.25;0.60;;;15.20;84.30;;;;;;4995045;28;20034;-78
2021/08/26 05:08:29;;;;;;;1.52;0.70;;;15.20;84.30;;;;;;4994629;28;20042;-79
2021/08/26 05:10:55;;;;;;;0.60;0.38;;;15.20;84.40;;;;;;4991378;28;20173;-79
2021/08/26 05:13:21;;;;;;;1.13;0.57;;;15.20;84.30;;;;;;4993273;28;20439;-79
2021/08/26 05:15:46;;;;;;;0.63;0.20;;;15.20;84.30;;;;;;4977162;28;20049;-79
2021/08/26 05:18:12;;;;;;;1.15;0.50;;;15.30;84.30;;;;;;4993689;28;20031;-79
2021/08/26 05:20:38;;;;;;;1.27;0.55;;;15.30;84.30;;;;;;4993350;28;20034;-79
2021/08/26 05:23:04;;;;;;;1.02;0.70;;;15.30;84.40;;;;;;4992407;28;20034;-79
2021/08/26 05:25:29;;;;;;;1.08;0.45;;;15.30;84.30;;;;;;4994934;28;20487;-79
2021/08/26 05:27:56;;;;;;;1.55;0.47;;;15.40;84.30;;;;;;4988462;28;20055;-79
2021/08/26 05:30:22;;;;;;;0.30;0.30;;;15.30;84.20;;;;;;4992586;28;20046;-79
2021/08/26 05:32:48;;;;;;;0.90;0.40;;;15.30;84.20;;;;;;4975617;28;20039;-79
2021/08/26 05:35:14;;;;;;;1.55;0.43;;;15.40;84.20;;;;;;4991584;28;20399;-79
2021/08/26 05:37:40;;;;;;;1.05;0.40;;;15.40;84.20;;;;;;4993373;28;20034;-79
2021/08/26 05:40:07;;;;;;;0.52;0.32;;;15.40;84.10;;;;;;4992444;28;20026;-79
2021/08/26 05:42:33;;;;;;;1.05;0.47;;;15.50;84.10;;;;;;4991871;28;20043;-79
2021/08/26 05:44:59;;;;;;;0.22;0.22;;;15.40;84.10;;;;;;5007555;28;20096;-79
2021/08/26 05:47:24;;;;;;;1.42;0.50;;;15.50;84.10;;;;;;4992889;28;20117;-79
2021/08/26 05:49:50;;;;;;;0.75;0.50;;;15.40;84.00;;;;;;5008677;28;20038;-79
2021/08/26 05:52:16;;;;;;;0.47;0.40;;;15.40;83.90;;;;;;4991657;28;20030;-79
2021/08/26 05:54:42;;;;;;;0.68;0.47;;;15.50;83.90;;;;;;5009538;28;20045;-79
2021/08/26 05:57:07;;;;;;;3.40;0.70;;;15.40;83.80;;;;;;4994374;28;20478;-78
2021/08/26 05:59:34;;;;;;;1.00;0.50;;;15.40;84.00;;;;;;4991609;28;20034;-79
2021/08/26 06:02:01;;;;;;;0.85;0.45;;;15.50;83.80;;;;;;4994071;28;20124;-78
2021/08/26 06:04:27;;;;;;;0.63;0.47;;;15.50;83.70;;;;;;4993024;28;20034;-79
2021/08/26 06:06:52;;;;;;;2.67;0.50;;;15.50;83.80;;;;;;5007966;28;20030;-79
2021/08/26 06:09:18;;;;;;;0.30;0.30;;;15.40;83.70;;;;;;4991138;28;20134;-79
2021/08/26 06:11:44;;;;;;;0.40;0.40;;;15.60;83.80;;;;;;4992604;28;20058;-79
2021/08/26 06:14:11;;;;;;;2.30;0.60;;;15.50;83.70;;;;;;4991714;28;20073;-78
2021/08/26 06:16:37;;;;;;;0.75;0.45;;;15.60;83.70;;;;;;4991598;28;20049;-77
2021/08/26 06:19:03;;;;;;;2.88;0.65;;;15.60;83.50;;;;;;4990895;28;20030;-78
2021/08/26 06:21:29;;;;;;;2.17;0.75;;;15.70;83.40;;;;;;4993899;28;20034;-78
2021/08/26 06:23:55;;;;;;;1.08;0.40;;;15.70;83.40;;;;;;4994237;28;20501;-78
2021/08/26 06:26:20;;;;;;;1.83;0.50;;;15.70;83.40;;;;;;4991104;28;20124;-78
2021/08/26 06:28:46;;;;;;;1.10;0.57;;;15.70;83.30;;;;;;4992314;28;20046;-78
2021/08/26 06:31:13;;;;;;;1.15;0.73;;;15.70;83.20;;;;;;4991592;28;20118;-78
2021/08/26 06:33:39;;;;;;;0.75;0.45;;;15.70;83.30;;;;;;4991115;28;20447;-79
2021/08/26 06:36:05;;;;;;;2.15;0.70;;;15.80;83.30;;;;;;4993943;28;20150;-77
2021/08/26 06:38:31;;;;;;;0.93;0.40;;;15.80;83.30;;;;;;4993484;28;20474;-78
2021/08/26 06:40:57;;;;;;;1.48;0.40;;;15.80;83.30;;;;;;4991481;28;20041;-78
2021/08/26 06:43:23;;;;;;;1.77;0.60;;;15.90;83.30;;;;;;4990873;28;20082;-78
2021/08/26 06:45:49;;;;;;;1.08;0.57;;;15.90;83.30;;;;;;4990201;28;20065;-78
2021/08/26 06:48:14;;;;;;;1.60;0.50;;;16.00;83.30;;;;;;4993378;28;20046;-78
2021/08/26 06:50:40;;;;;;;1.30;0.55;;;16.10;83.20;;;;;;4990937;28;20043;-78
2021/08/26 06:53:07;;;;;;;1.35;0.60;;;16.10;82.90;;;;;;4991043;28;20038;-78
2021/08/26 06:55:33;;;;;;;1.80;0.60;;;16.20;82.70;;;;;;4991157;28;20049;-77
2021/08/26 06:57:59;;;;;;;1.25;0.50;;;16.20;82.40;;;;;;4991904;28;20030;-78
2021/08/26 07:00:24;;;;;;;1.33;0.55;;;16.30;82.50;;;;;;4993203;28;20069;-78
2021/08/26 07:02:51;;;;;;;1.23;0.68;;;16.20;82.40;;;;;;4990826;28;20483;-80
2021/08/26 07:05:17;;;;;;;0.52;0.40;;;16.20;82.20;;;;;;4990174;28;20039;-78
2021/08/26 07:07:42;;;;;;;0.55;0.40;;;16.30;82.20;;;;;;4991480;28;20470;-78
2021/08/26 07:10:08;;;;;;;1.52;0.50;;;16.20;82.20;;;;;;4993403;28;20026;-78
2021/08/26 07:12:34;;;;;;;1.42;0.30;;;16.20;82.20;;;;;;4992937;28;20113;-79
2021/08/26 07:15:00;;;;;;;0.77;0.32;;;16.10;82.30;;;;;;4992559;28;20042;-79
2021/08/26 07:17:26;;;;;;;0.93;0.45;;;16.20;82.40;;;;;;4974825;28;20886;-78
2021/08/26 07:19:52;;;;;;;1.00;0.60;;;16.20;82.40;;;;;;4974364;28;20034;-77
2021/08/26 07:22:18;;;;;;;0.80;0.40;;;16.30;82.30;;;;;;4989791;28;20053;-79
2021/08/26 07:24:44;;;;;;;1.38;0.60;;;16.30;82.10;;;;;;4990911;28;20478;-78
2021/08/26 07:27:10;;;;;;;1.58;0.65;;;16.30;82.00;;;;;;5006816;28;20038;-78
2021/08/26 07:29:37;;;;;;;1.30;0.60;;;16.30;82.10;;;;;;4992661;28;20039;-78
2021/08/26 07:32:04;;;;;;;0.77;0.50;;;16.30;82.30;;;;;;4989808;28;20870;-78
2021/08/26 07:34:30;;;;;;;1.02;0.50;;;16.30;82.40;;;;;;4990824;28;20042;-78
2021/08/26 07:36:56;;;;;;;0.75;0.40;;;16.40;82.20;;;;;;4990487;28;20030;-79
2021/08/26 07:39:22;;;;;;;0.95;0.47;;;16.40;82.10;;;;;;4989825;28;20443;-78
2021/08/26 07:41:48;;;;;;;2.80;0.70;;;16.40;82.10;;;;;;4992743;28;20041;-78
2021/08/26 07:44:14;;;;;;;0.75;0.45;;;16.40;82.00;;;;;;5007177;28;20054;-78
2021/08/26 07:46:40;;;;;;;0.75;0.30;;;16.30;82.20;;;;;;5006059;28;20045;-79
2021/08/26 07:49:07;;;;;;;0.52;0.32;;;16.30;82.40;;;;;;4973410;28;20046;-79
2021/08/26 07:51:33;;;;;;;1.85;0.57;;;16.30;82.50;;;;;;4993529;28;20033;-79
2021/08/26 07:53:59;;;;;;;1.52;0.50;;;16.30;82.50;;;;;;5010187;28;20046;-79
2021/08/26 07:56:25;;;;;;;0.47;0.45;;;16.30;82.50;;;;;;4993269;28;20031;-78
2021/08/26 07:58:51;;;;;;;0.95;0.55;;;16.20;82.70;;;;;;5008909;28;20130;-79
2021/08/26 08:01:16;;;;;;;0.63;0.45;;;16.30;82.90;;;;;;4994059;28;20122;-80
2021/08/26 08:03:42;;;;;;;1.77;0.55;;;16.20;82.90;;;;;;4993317;28;20035;-80
2021/08/26 08:06:08;;;;;;;0.40;0.30;;;16.30;83.00;;;;;;4995905;28;20038;-80
2021/08/26 08:08:35;;;;;;;0.68;0.30;;;16.40;82.90;;;;;;5010431;28;20398;-79
2021/08/26 08:11:01;;;;;;;1.70;0.55;;;16.40;82.70;;;;;;4994140;28;20039;-79
2021/08/26 08:13:27;;;;;;;1.30;0.50;;;16.50;82.80;;;;;;4993121;28;20398;-79
2021/08/26 08:15:52;;;;;;;1.30;0.50;;;16.60;82.70;;;;;;5009027;28;20483;-79
2021/08/26 08:18:19;;;;;;;1.00;0.60;;;16.80;82.50;;;;;;5010029;28;20097;-79
2021/08/26 08:20:45;;;;;;;0.60;0.40;;;17.00;82.20;;;;;;4994580;28;20437;-79
2021/08/26 08:23:10;;;;;;;0.43;0.30;;;17.10;81.80;;;;;;4994307;28;20517;-79
2021/08/26 08:25:36;;;;;;;1.15;0.50;;;17.30;81.50;;;;;;4994413;28;20066;-80
2021/08/26 08:28:12;;;;;;;0.88;0.38;;;17.30;81.30;;;;;;4995722;28;20038;-79
2021/08/26 08:30:38;;;;;;;0.77;0.40;;;17.40;81.30;;;;;;4993899;28;20026;-79
2021/08/26 08:33:04;;;;;;;0.35;0.35;;;17.40;81.20;;;;;;4993636;28;20035;-84
2021/08/26 08:35:29;;;;;;;0.65;0.45;;;17.40;81.10;;;;;;4993206;28;20062;-81
2021/08/26 08:37:55;;;;;;;1.08;0.50;;;17.30;81.40;;;;;;4996361;28;20043;-81
2021/08/26 08:40:21;;;;;;;1.20;0.45;;;17.10;81.70;;;;;;4996492;28;20035;-82
2021/08/26 08:42:46;;;;;;;1.63;0.80;;;17.00;82.20;;;;;;4993575;28;20054;-81
2021/08/26 08:45:12;;;;;;;2.58;0.68;;;17.10;82.50;;;;;;4995342;28;20042;-82
2021/08/26 08:47:39;;;;;;;0.93;0.43;;;17.10;82.40;;;;;;4995527;28;20062;-81
2021/08/26 08:50:06;;;;;;;1.92;0.43;;;17.10;82.40;;;;;;4994709;28;20030;-80
2021/08/26 08:52:37;;;;;;;1.35;0.70;;;17.20;82.40;;;;;;4994094;28;20038;-81
2021/08/26 08:55:05;;;;;;;0.55;0.30;;;17.30;82.40;;;;;;4994577;28;20042;-81
2021/08/26 08:57:31;;;;;;;1.13;0.40;;;17.30;82.00;;;;;;4994401;28;20475;-80
2021/08/26 08:59:57;;;;;;;1.05;0.35;;;17.40;82.10;;;;;;4994611;28;20093;-80
2021/08/26 09:02:26;;;;;;;0.40;0.40;;;17.50;82.10;;;;;;5009816;28;20065;-80
2021/08/26 09:04:54;;;;;;;1.65;0.50;;;17.50;81.90;;;;;;4995927;28;20038;-81
2021/08/26 09:07:25;;;;;;;0.55;0.40;;;17.50;82.00;;;;;;5009517;28;20037;-80
2021/08/26 09:09:52;;;;;;;;;;;17.60;81.80;;;;;;4993868;28;20035;-80
2021/08/26 09:12:19;;;;;;;1.65;0.43;;;17.60;81.50;;;;;;4995412;28;19989;-80
2021/08/26 09:14:44;;;;;;;0.70;0.38;;;17.60;81.50;;;;;;4982026;28;20089;-80
2021/08/26 09:17:20;;;;;;;1.08;0.47;;;17.70;81.60;;;;;;5001466;28;20046;-79
2021/08/26 09:19:46;;;;;;;1.75;0.57;;;17.80;81.60;;;;;;5000011;28;20101;-79
2021/08/26 09:22:22;;;;;;;1.05;0.50;;;17.80;81.40;;;;;;4999036;28;20037;-79
2021/08/26 09:24:52;;;;;;;1.10;0.50;;;17.80;81.40;;;;;;4998011;28;20038;-78
2021/08/26 09:27:39;;;;;;;1.02;0.47;;;17.90;81.40;;;;;;4992871;28;20435;-79
2021/08/26 09:30:09;;;;;;;0.90;0.45;;;17.80;81.50;;;;;;4992636;28;20096;-79
2021/08/26 09:32:47;;;;;;;0.73;0.50;;;17.80;81.60;;;;;;4992462;28;20035;-80
2021/08/26 09:35:15;;;;;;;0.85;0.30;;;17.80;81.80;;;;;;4995296;28;20086;-79
2021/08/26 09:37:44;;;;;;;1.05;0.60;;;17.80;81.70;;;;;;4993537;28;20161;-79
2021/08/26 09:40:12;;;;;;;1.38;0.43;;;17.80;81.60;;;;;;4992458;28;20648;-79
2021/08/26 09:42:38;;;;;;;1.35;0.60;;;17.80;81.80;;;;;;4992242;28;20058;-79
2021/08/26 09:45:18;;;;;;;0.75;0.60;;;17.80;81.80;;;;;;4992084;28;20042;-79
2021/08/26 09:47:58;;;;;;;2.28;0.63;;;17.90;81.70;;;;;;4992615;28;20038;-79
2021/08/26 09:50:40;;;;;;;2.33;0.70;;;17.90;81.60;;;;;;4994155;28;20398;-80
2021/08/26 09:53:07;;;;;;;2.00;0.60;;;17.90;81.50;;;;;;5007837;28;20072;-80
2021/08/26 09:55:52;;;;;;;1.50;0.40;;;17.90;81.40;;;;;;4994372;28;20042;-79
2021/08/26 09:58:20;;;;;;;2.13;0.60;;;17.90;81.40;;;;;;5007250;28;20069;-79
2021/08/26 10:00:47;;;;;;;1.05;0.50;;;17.90;81.50;;;;;;4992648;28;20026;-79
2021/08/26 10:03:14;;;;;;;1.67;0.80;;;17.80;81.50;;;;;;4992509;28;20042;-80
2021/08/26 10:05:43;;;;;;;1.85;0.70;;;17.80;81.60;;;;;;4991864;28;20034;-79
2021/08/26 10:08:10;;;;;;;3.17;0.80;;;17.80;81.60;;;;;;4991724;28;20022;-80
2021/08/26 10:10:40;;;;;;;1.20;0.40;;;17.80;81.50;;;;;;4991367;28;20034;-80
2021/08/26 10:13:07;;;;;;;0.80;0.50;;;17.90;81.40;;;;;;4990880;28;20057;-81
2021/08/26 10:15:33;;;;;;;2.28;0.70;;;18.00;81.30;;;;;;4992511;28;20497;-80
2021/08/26 10:18:00;;;;;;;0.40;0.40;;;18.20;81.20;;;;;;4992384;28;20045;-79
2021/08/26 10:20:26;;;;;;;1.00;0.45;;;18.20;81.10;;;;;;4991972;28;20039;-80
2021/08/26 10:22:52;;;;;;;2.60;0.82;;;18.30;80.70;;;;;;4990964;28;20509;-81
2021/08/26 10:25:19;;;;;;;0.95;0.50;;;18.50;80.30;;;;;;4992654;28;20069;-80
2021/08/26 10:27:46;;;;;;;1.65;0.70;;;18.50;80.10;;;;;;4993064;28;20069;-81
2021/08/26 10:30:30;;;;;;;2.13;0.70;;;18.60;80.00;;;;;;4992596;28;20546;-80
2021/08/26 10:33:22;;;;;;;0.82;0.70;;;18.60;79.90;;;;;;4993054;28;20039;-79
2021/08/26 10:36:05;;;;;;;1.15;0.73;;;18.40;79.80;;;;;;4992169;28;20490;-79
2021/08/26 10:38:33;;;;;;;1.63;0.70;;;18.40;80.00;;;;;;5008636;28;20627;-80
2021/08/26 10:41:29;;;;;;;0.65;0.50;;;18.40;80.20;;;;;;5008452;28;20093;-80
2021/08/26 10:43:58;;;;;;;0.52;0.45;;;18.30;80.40;;;;;;5008489;28;20043;-80
2021/08/26 10:46:46;;;;;;;0.47;0.32;;;18.40;80.50;;;;;;4992165;28;20054;-80
2021/08/26 10:49:12;;;;;;;1.98;0.60;;;18.40;80.40;;;;;;4990832;28;20057;-79
2021/08/26 10:51:43;;;;;;;2.40;0.60;;;18.40;80.10;;;;;;4990036;28;20490;-80
2021/08/26 10:54:28;;;;;;;3.10;0.90;;;18.60;80.00;;;;;;4990280;28;20110;-80
2021/08/26 10:56:55;;;;;;;1.40;0.73;;;18.60;79.70;;;;;;5008506;28;20038;-79
2021/08/26 10:59:29;;;;;;;1.77;0.52;;;18.60;79.70;;;;;;5008494;28;20037;-80
2021/08/26 11:01:54;;;;;;;1.38;0.90;;;18.60;79.70;;;;;;4992059;28;20030;-78
2021/08/26 11:04:29;;;;;;;1.27;0.60;;;18.50;79.60;;;;;;4991669;28;20546;-80
2021/08/26 11:06:56;;;;;;;0.95;0.60;;;18.60;79.70;;;;;;4992364;28;20030;-80
2021/08/26 11:09:27;;;;;;;3.00;1.00;;;18.70;79.70;;;;;;4991702;28;20058;-79
2021/08/26 11:11:58;;;;;;;;;;;18.80;79.40;;;;;;5008238;28;20041;-80
2021/08/26 11:14:26;;;;;;;1.85;0.70;;;18.90;79.20;;;;;;4975269;28;19996;-79
2021/08/26 11:16:54;;;;;;;1.48;0.60;;;19.00;79.10;;;;;;4991109;28;20501;-79
2021/08/26 11:19:28;;;;;;;0.85;0.70;;;19.10;78.80;;;;;;4991020;28;20050;-79
2021/08/26 11:22:00;;;;;;;1.48;0.57;;;19.10;78.60;;;;;;4991698;28;20038;-80
2021/08/26 11:24:52;;;;;;;2.25;0.60;;;19.20;78.70;;;;;;5005427;28;20050;-80
2021/08/26 11:27:21;;;;;;;2.55;0.60;;;19.30;78.50;;;;;;4994848;28;20069;-80
2021/08/26 11:29:49;;;;;;;3.90;1.05;;;19.40;78.50;;;;;;4992273;28;20045;-79
2021/08/26 11:32:16;;;;;;;1.20;0.63;;;19.40;78.40;;;;;;4991640;28;20121;-80
2021/08/26 11:34:45;;;;;;;1.65;0.73;;;19.50;78.40;;;;;;4992570;28;20105;-79
2021/08/26 11:37:14;;;;;;;1.73;0.90;;;19.70;77.90;;;;;;5007048;28;20053;-79
2021/08/26 11:39:49;;;;;;;2.10;1.10;;;19.70;77.60;;;;;;4992466;28;20046;-79
2021/08/26 11:42:36;;;;;;;2.28;0.93;;;19.70;77.30;;;;;;4992642;28;20470;-80
2021/08/26 11:45:11;;;;;;;1.50;0.80;;;19.70;77.40;;;;;;4992572;28;20127;-79
2021/08/26 11:47:41;;;;;;;1.48;0.73;;;19.50;77.60;;;;;;4989944;28;20042;-80
2021/08/26 11:50:18;;;;;;;3.58;0.98;;;19.40;78.00;;;;;;4990475;28;20141;-80
2021/08/26 11:52:48;;;;;;;2.67;1.00;;;19.50;78.20;;;;;;4990641;28;20038;-79
2021/08/26 11:55:14;;;;;;;3.13;1.02;;;19.50;78.10;;;;;;4992814;28;20053;-81
2021/08/26 11:57:40;;;;;;;2.25;0.85;;;19.50;77.90;;;;;;4990088;28;20038;-80
2021/08/26 12:00:15;;;;;;;1.67;0.90;;;19.60;77.90;;;;;;4992245;28;20386;-79
2021/08/26 12:02:48;;;;;;;1.42;0.82;;;19.60;77.70;;;;;;5006151;28;20528;-79
2021/08/26 12:05:15;;;;;;;3.60;1.10;;;19.70;77.70;;;;;;4990236;28;20035;-78
2021/08/26 12:07:44;;;;;;;3.05;1.00;;;19.70;77.50;;;;;;4990314;28;20037;-79
2021/08/26 12:10:14;;;;;;;3.47;1.00;;;19.80;77.30;;;;;;4992742;28;20474;-79
2021/08/26 12:13:01;;;;;;;1.42;0.60;;;19.90;77.10;;;;;;5005883;28;20050;-79
2021/08/26 12:15:55;;;;;;;2.55;0.90;;;19.90;77.10;;;;;;4989675;28;20051;-79
2021/08/26 12:18:24;;;;;;;1.42;0.70;;;19.80;77.70;;;;;;4991662;28;20035;-79
2021/08/26 12:20:55;;;;;;;2.20;0.82;;;19.90;77.10;;;;;;4990817;28;20096;-80
2021/08/26 12:23:24;;;;;;;1.95;0.98;;;19.80;77.20;;;;;;4992522;28;20038;-79
2021/08/26 12:26:11;;;;;;;1.45;0.90;;;20.00;77.10;;;;;;4992029;28;20085;-78
2021/08/26 12:28:42;;;;;;;1.30;0.80;;;20.10;76.70;;;;;;4992502;28;20116;-78
2021/08/26 12:31:08;;;;;;;;;;;20.10;76.60;;;;;;4992295;28;20070;-79
2021/08/26 12:33:34;;;;;;;1.02;0.70;;;20.20;76.50;;;;;;4989080;28;19921;-79
2021/08/26 12:36:01;;;;;;;1.00;0.75;;;20.10;76.50;;;;;;4990940;28;20046;-79
2021/08/26 12:38:35;;;;;;;2.90;1.25;;;20.10;76.60;;;;;;4994195;28;20031;-78
2021/08/26 12:41:05;;;;;;;2.08;0.90;;;20.00;76.70;;;;;;4995319;28;20038;-79
2021/08/26 12:43:52;;;;;;;1.50;0.80;;;20.00;76.90;;;;;;4995246;28;20034;-80
2021/08/26 12:46:21;;;;;;;2.92;1.20;;;20.00;77.00;;;;;;4995090;28;20050;-80
2021/08/26 12:48:48;;;;;;;3.03;1.15;;;19.90;76.90;;;;;;4994093;28;20038;-79
2021/08/26 12:51:21;;;;;;;1.77;0.90;;;20.00;76.90;;;;;;4995064;28;20093;-79
2021/08/26 12:54:10;;;;;;;3.03;0.95;;;20.10;76.80;;;;;;4994814;28;20062;-78
2021/08/26 12:56:44;;;;;;;1.95;0.85;;;20.10;76.80;;;;;;4994671;28;20148;-79
2021/08/26 12:59:11;;;;;;;1.40;0.77;;;20.10;76.90;;;;;;4993793;28;20030;-79